»·PEaware :: GTI802 KSLC-KDEN

GTI802 :: KSLC-KDEN

FLIGHT INFORMATION

Flight Status: Arrived
Operator:
Atlas Air
More flights by this operator :: More flights under this callsign
Pilot: Jerome G. (4242)
Aircraft: BOEING 747-400 (WINGLETS)
(B744)
More flights by this aircraft type
Origin: KSLC Salt Lake City Intl
United States
Destination: KDEN Denver Intl
United States
More flights between these airports :: More routes between these airports
Route: + / TOMSN FRNCH3
File this flight plan on PilotEdge
Remarks:
Altitude:
(Current/Filed)
37,000ft
Speed:
(Current/Filed)
450kts
Departed: 12-Aug-17 01:36 PM
Arrived: 12-Aug-17 02:36 PM
Distance/Time
Traveled:
339nm/1:00
Distance/Time
To Go:
Arrived

Flight Plot

Page will automatically refresh every two minutes.

Flight plan parsing failed; only flown route is shown


Map Options




Map Legend


Flown Route
Filed Route
Departure Airport
Arrival Airport
Navaid (VOR, NDB)
Fix

Horizontal Profiles

Position Reports

Time Latitude Longitude Heading Altitude Ground
Speed
12-Aug-17 12:57 40.778892 -111.977059 356 4240ft 0kts
12-Aug-17 12:58 40.778892 -111.977059 356 4240ft 0kts
12-Aug-17 12:59 40.778892 -111.977059 356 4240ft 0kts
12-Aug-17 13:00 40.778892 -111.977059 356 4239ft 0kts
12-Aug-17 13:01 40.778892 -111.977059 356 4240ft 0kts
12-Aug-17 13:02 40.778892 -111.977059 356 4240ft 0kts
12-Aug-17 13:03 40.778892 -111.977059 356 4240ft 0kts
12-Aug-17 13:04 40.778892 -111.977059 356 4240ft 0kts
12-Aug-17 13:05 40.778892 -111.977059 356 4240ft 0kts
12-Aug-17 13:06 40.778892 -111.977059 356 4240ft 0kts
12-Aug-17 13:07 40.778892 -111.977059 356 4240ft 0kts
12-Aug-17 13:08 40.778892 -111.977059 356 4240ft 0kts
12-Aug-17 13:09 40.778892 -111.977059 356 4240ft 0kts
12-Aug-17 13:10 40.778892 -111.977059 356 4240ft 0kts
12-Aug-17 13:11 40.778892 -111.977059 356 4240ft 0kts
12-Aug-17 13:12 40.778892 -111.977059 356 4240ft 0kts
12-Aug-17 13:13 40.778892 -111.977059 356 4240ft 0kts
12-Aug-17 13:14 40.778892 -111.977059 356 4240ft 0kts
12-Aug-17 13:15 40.778892 -111.977059 356 4240ft 0kts
12-Aug-17 13:16 40.778892 -111.977059 356 4240ft 0kts
12-Aug-17 13:17 40.778892 -111.977059 356 4240ft 0kts
12-Aug-17 13:18 40.778892 -111.977059 356 4240ft 0kts
12-Aug-17 13:19 40.778892 -111.977059 356 4240ft 0kts
12-Aug-17 13:20 40.778892 -111.977059 356 4240ft 0kts
12-Aug-17 13:21 40.778892 -111.977059 356 4240ft 0kts
12-Aug-17 13:22 40.778810 -111.977052 355 4240ft 2kts
12-Aug-17 13:23 40.778163 -111.976974 354 4240ft 2kts
12-Aug-17 13:24 40.777860 -111.976940 354 4240ft 0kts
12-Aug-17 13:25 40.777860 -111.976940 354 4240ft 0kts
12-Aug-17 13:26 40.777860 -111.976940 354 4240ft 0kts
12-Aug-17 13:27 40.777861 -111.976940 354 4240ft 0kts
12-Aug-17 13:28 40.778337 -111.975919 64 4240ft 9kts
12-Aug-17 13:29 40.780810 -111.975971 355 4240ft 15kts
12-Aug-17 13:30 40.785424 -111.976549 352 4240ft 14kts
12-Aug-17 13:31 40.789089 -111.976905 354 4240ft 12kts
12-Aug-17 13:32 40.792176 -111.977286 354 4240ft 10kts
12-Aug-17 13:33 40.795718 -111.977736 354 4240ft 15kts
12-Aug-17 13:34 40.799475 -111.978139 352 4240ft 12kts
12-Aug-17 13:35 40.803925 -111.978656 354 4240ft 22kts
12-Aug-17 13:36 40.807179 -111.978814 42 4240ft 0kts
12-Aug-17 13:37 40.807179 -111.978814 42 4240ft 0kts
12-Aug-17 13:38 40.807387 -111.977509 102 4240ft 5kts
12-Aug-17 13:39 40.803734 -111.976338 175 4240ft 78kts
12-Aug-17 13:41 40.755692 -111.977473 205 6034ft 213kts
12-Aug-17 13:42 40.747719 -112.059424 301 7335ft 272kts
12-Aug-17 13:43 40.802670 -112.129152 316 9638ft 275kts
12-Aug-17 13:44 40.857993 -112.197243 314 10018ft 274kts
12-Aug-17 13:45 40.927041 -112.232241 14 11663ft 301kts
12-Aug-17 13:46 40.971452 -112.130903 92 12273ft 387kts
12-Aug-17 13:47 40.958576 -111.981445 97 14689ft 423kts
12-Aug-17 13:48 40.943908 -111.823576 97 17716ft 442kts
12-Aug-17 13:49 40.928232 -111.658454 97 20457ft 461kts
12-Aug-17 13:50 40.915479 -111.486696 94 22946ft 479kts
12-Aug-17 13:51 40.914549 -111.473179 94 23131ft 480kts
12-Aug-17 13:52 40.908597 -111.389846 96 24212ft 488kts
12-Aug-17 13:53 40.886911 -111.208963 99 26263ft 508kts
12-Aug-17 13:54 40.864297 -111.024723 99 28026ft 526kts
12-Aug-17 13:55 40.841211 -110.830634 99 29573ft 540kts
12-Aug-17 13:56 40.817342 -110.635392 100 31412ft 540kts
12-Aug-17 13:57 40.793094 -110.439556 99 33040ft 539kts
12-Aug-17 13:58 40.768488 -110.244449 101 34405ft 540kts
12-Aug-17 13:59 40.743181 -110.047837 99 35497ft 545kts
12-Aug-17 14:00 40.728379 -109.848166 96 36479ft 549kts
12-Aug-17 14:01 40.713764 -109.647730 97 37184ft 551kts
12-Aug-17 14:02 40.699524 -109.446113 96 37181ft 551kts
12-Aug-17 14:03 40.684578 -109.245490 97 37181ft 551kts
12-Aug-17 14:04 40.669324 -109.047472 97 37182ft 551kts
12-Aug-17 14:05 40.653505 -108.846875 97 37178ft 551kts
12-Aug-17 14:06 40.637314 -108.646069 97 37198ft 553kts
12-Aug-17 14:07 40.620686 -108.444294 97 37205ft 554kts
12-Aug-17 14:08 40.603741 -108.243010 97 37214ft 554kts
12-Aug-17 14:09 40.586391 -108.041202 97 37227ft 555kts
12-Aug-17 14:10 40.568704 -107.839585 98 37249ft 556kts
12-Aug-17 14:10 40.554003 -107.671381 97 37251ft 556kts
12-Aug-17 14:12 40.532329 -107.435650 98 37251ft 555kts
12-Aug-17 14:12 40.517360 -107.268006 95 37272ft 555kts
12-Aug-17 14:14 40.505452 -107.036581 94 36693ft 535kts
12-Aug-17 14:14 40.496457 -106.875626 94 35066ft 522kts
12-Aug-17 14:15 40.486856 -106.688011 94 33098ft 508kts
12-Aug-17 14:16 40.476215 -106.505867 94 31190ft 493kts
12-Aug-17 14:17 40.465669 -106.331395 94 29977ft 461kts
12-Aug-17 14:18 40.449976 -106.167923 100 28320ft 444kts
12-Aug-17 14:19 40.427892 -106.010578 99 27099ft 433kts
12-Aug-17 14:20 40.408644 -105.855980 98 25902ft 423kts
12-Aug-17 14:21 40.390819 -105.705270 99 24726ft 414kts
12-Aug-17 14:22 40.372189 -105.558245 99 22944ft 401kts
12-Aug-17 14:23 40.345078 -105.424201 121 21642ft 373kts
12-Aug-17 14:24 40.281631 -105.318625 132 19737ft 365kts
12-Aug-17 14:25 40.217144 -105.217765 131 18024ft 356kts
12-Aug-17 14:26 40.154374 -105.119289 131 16567ft 342kts
12-Aug-17 14:27 40.092798 -105.023491 130 15212ft 338kts
12-Aug-17 14:28 40.033184 -104.930971 131 14356ft 336kts
12-Aug-17 14:29 39.974077 -104.839423 131 13242ft 340kts
12-Aug-17 14:30 39.889316 -104.804889 181 11396ft 324kts
12-Aug-17 14:31 39.807266 -104.808471 182 10770ft 280kts
12-Aug-17 14:32 39.732694 -104.810426 182 9420ft 253kts
12-Aug-17 14:33 39.666035 -104.804659 147 8111ft 243kts
12-Aug-17 14:34 39.656322 -104.723255 79 8085ft 241kts
12-Aug-17 14:35 39.685465 -104.662486 11 8077ft 207kts
12-Aug-17 14:36 39.745093 -104.661507 359 7071ft 199kts
12-Aug-17 14:37 39.792129 -104.661000 353 6202ft 149kts
12-Aug-17 14:38 39.833478 -104.660532 353 5456ft 139kts
12-Aug-17 14:39 39.860952 -104.660501 318 5444ft 15kts
12-Aug-17 14:40 39.861100 -104.661676 267 5444ft 0kts
12-Aug-17 14:41 39.858788 -104.662305 182 5444ft 15kts
12-Aug-17 14:42 39.853821 -104.662364 181 5444ft 18kts
12-Aug-17 14:43 39.849142 -104.662407 182 5444ft 14kts

Navigation Log

Ident Type
Flight plan parsing failed, navigation log unavailable